createdAt,value
2019-01-11T00:00:45.732Z,12.18
2019-01-11T00:03:14.626Z,10.18
2019-01-11T00:05:43.305Z,10.93
2019-01-11T00:08:12.086Z,10.23
2019-01-11T00:10:40.767Z,14.43
2019-01-11T00:13:09.457Z,12.82
2019-01-11T00:15:38.866Z,11.00
2019-01-11T00:18:07.666Z,11.27
2019-01-11T00:20:36.445Z,11.55
2019-01-11T00:23:05.637Z,12.40
2019-01-11T00:25:34.529Z,10.43
2019-01-11T00:28:03.209Z,13.20
2019-01-11T00:30:32.095Z,12.68
2019-01-11T00:33:00.891Z,12.90
2019-01-11T00:35:29.714Z,10.30
2019-01-11T00:37:58.572Z,9.20
2019-01-11T00:40:27.363Z,10.83
2019-01-11T00:42:55.828Z,11.28
2019-01-11T00:45:24.517Z,11.68
2019-01-11T00:47:53.002Z,15.05
2019-01-11T00:50:22.811Z,12.78
2019-01-11T00:52:51.468Z,13.10
2019-01-11T00:55:20.080Z,14.68
2019-01-11T00:57:48.889Z,13.63
2019-01-11T01:00:20.742Z,15.00
2019-01-11T01:02:49.411Z,11.57
2019-01-11T01:05:18.103Z,13.98
2019-01-11T01:07:46.793Z,10.85
2019-01-11T01:10:15.681Z,14.18
2019-01-11T01:12:44.584Z,12.98
2019-01-11T01:15:14.386Z,12.13
2019-01-11T01:17:43.276Z,13.35
2019-01-11T01:20:14.344Z,12.33
2019-01-11T01:22:43.313Z,12.82
2019-01-11T01:25:12.183Z,15.27
2019-01-11T01:27:40.996Z,12.63
2019-01-11T01:30:18.280Z,13.10
2019-01-11T01:32:47.175Z,11.65
2019-01-11T01:35:15.958Z,14.53
2019-01-11T01:37:44.855Z,13.85
2019-01-11T01:40:15.777Z,14.60
2019-01-11T01:42:44.566Z,16.77
2019-01-11T01:45:17.035Z,11.10
2019-01-11T01:47:45.726Z,11.90
2019-01-11T01:50:14.556Z,13.68
2019-01-11T01:52:43.518Z,14.95
2019-01-11T01:55:13.926Z,15.38
2019-01-11T01:57:42.717Z,12.17
2019-01-11T02:00:14.592Z,14.20
2019-01-11T02:02:43.272Z,15.85
2019-01-11T02:05:11.950Z,15.43
2019-01-11T02:07:40.520Z,18.07
2019-01-11T02:10:11.350Z,16.15
2019-01-11T02:12:39.862Z,18.70
2019-01-11T02:15:10.119Z,17.25
2019-01-11T02:17:38.735Z,16.77
2019-01-11T02:20:10.812Z,18.17
2019-01-11T02:22:39.730Z,18.27
2019-01-11T02:25:08.699Z,17.65
2019-01-11T02:27:37.389Z,16.00
2019-01-11T02:30:09.232Z,16.75
2019-01-11T02:32:37.934Z,18.37
2019-01-11T02:35:06.411Z,18.52
2019-01-11T02:37:35.102Z,16.42
2019-01-11T02:40:05.372Z,15.88
2019-01-11T02:42:34.212Z,17.87
2019-01-11T02:45:02.906Z,14.55
2019-01-11T02:47:31.698Z,17.85
2019-01-11T02:50:00.487Z,15.28
2019-01-11T02:52:29.293Z,16.70
2019-01-11T02:54:58.097Z,18.23
2019-01-11T02:57:26.968Z,19.00
2019-01-11T02:59:55.846Z,20.62
2019-01-11T03:02:24.415Z,19.20
2019-01-11T03:04:53.325Z,20.72
2019-01-11T03:07:21.985Z,19.10
2019-01-11T03:09:50.787Z,18.27
2019-01-11T03:18:11.037Z,20.30
2019-01-11T03:20:40.113Z,18.98
2019-01-11T03:23:08.788Z,19.42
2019-01-11T03:25:37.591Z,19.00
2019-01-11T03:28:06.380Z,21.15
2019-01-11T03:30:35.048Z,18.90
2019-01-11T03:33:03.955Z,20.20
2019-01-11T03:35:32.842Z,20.88
2019-01-11T03:38:01.733Z,18.42
2019-01-11T03:40:30.514Z,21.00
2019-01-11T03:42:59.092Z,22.85
2019-01-11T03:45:28.007Z,21.05
2019-01-11T03:47:56.781Z,22.17
2019-01-11T03:50:25.572Z,21.55
2019-01-11T03:52:54.240Z,17.55
2019-01-11T03:55:22.824Z,17.07
2019-01-11T03:57:51.622Z,19.90
2019-01-11T04:00:21.883Z,18.10
2019-01-11T04:02:50.626Z,18.45
2019-01-11T04:05:19.435Z,19.00
2019-01-11T04:07:48.504Z,25.35
2019-01-11T04:10:21.818Z,18.85
2019-01-11T04:12:50.496Z,18.42
2019-01-11T04:15:20.247Z,18.52
2019-01-11T04:17:51.136Z,17.77
2019-01-11T04:20:19.836Z,18.85
2019-01-11T04:22:50.356Z,20.32
2019-01-11T04:25:23.751Z,18.15
2019-01-11T04:27:52.641Z,17.40
2019-01-11T04:30:21.529Z,18.90
2019-01-11T04:32:50.329Z,19.87
2019-01-11T04:35:20.037Z,18.95
2019-01-11T04:37:48.610Z,20.12
2019-01-11T04:40:17.848Z,20.32
2019-01-11T04:42:46.501Z,17.95
2019-01-11T04:45:15.291Z,18.40
2019-01-11T04:47:44.076Z,19.30
2019-01-11T04:50:15.277Z,23.77
2019-01-11T04:52:43.911Z,17.63
2019-01-11T04:55:12.693Z,19.32
2019-01-11T04:57:41.375Z,18.20
2019-01-11T05:00:18.551Z,19.30
2019-01-11T05:02:47.259Z,17.85
2019-01-11T05:05:16.129Z,20.50
2019-01-11T05:07:44.709Z,19.52
2019-01-11T05:10:17.362Z,21.27
2019-01-11T05:12:45.874Z,21.05
2019-01-11T05:15:14.884Z,20.77
2019-01-11T05:17:43.432Z,19.40
2019-01-11T05:20:16.750Z,20.02
2019-01-11T05:22:45.222Z,23.20
2019-01-11T05:25:14.122Z,23.20
2019-01-11T05:27:43.026Z,20.62
2019-01-11T05:30:15.287Z,20.27
2019-01-11T05:32:43.755Z,21.97
2019-01-11T05:35:12.544Z,19.20
2019-01-11T05:37:41.439Z,21.55
2019-01-11T05:40:15.549Z,22.30
2019-01-11T05:42:46.055Z,19.57
2019-01-11T05:45:14.456Z,18.87
2019-01-11T05:47:43.136Z,19.55
2019-01-11T05:50:15.017Z,21.70
2019-01-11T05:52:43.914Z,20.43
2019-01-11T05:55:14.231Z,20.72
2019-01-11T05:57:44.437Z,21.57
2019-01-11T06:00:13.238Z,20.02
2019-01-11T06:02:42.139Z,18.92
2019-01-11T06:05:12.252Z,18.48
2019-01-11T06:07:42.676Z,17.17
2019-01-11T06:10:13.822Z,16.27
2019-01-11T06:12:42.709Z,15.15
2019-01-11T06:15:12.111Z,16.15
2019-01-11T06:17:40.892Z,14.78
2019-01-11T06:20:14.552Z,14.13
2019-01-11T06:22:43.390Z,14.18
2019-01-11T06:25:11.961Z,13.57
2019-01-11T06:27:40.625Z,11.63
2019-01-11T06:30:12.727Z,11.22
2019-01-11T06:32:41.406Z,11.40
2019-01-11T06:35:10.396Z,11.53
2019-01-11T06:37:39.173Z,10.43
2019-01-11T06:40:10.064Z,10.45
2019-01-11T06:42:38.917Z,10.93
2019-01-11T06:45:10.678Z,10.65
2019-01-11T06:47:40.081Z,10.33
2019-01-11T06:50:14.589Z,9.63
2019-01-11T06:52:43.387Z,10.50
2019-01-11T06:55:12.468Z,9.83
2019-01-11T06:57:41.166Z,9.33
2019-01-11T07:00:12.920Z,8.88
2019-01-11T07:02:41.721Z,9.60
2019-01-11T07:05:11.336Z,8.98
2019-01-11T07:07:40.521Z,8.68
2019-01-11T07:10:12.328Z,9.35
2019-01-11T07:12:41.279Z,8.95
2019-01-11T07:15:10.848Z,8.70
2019-01-11T07:17:39.462Z,8.70
2019-01-11T07:20:11.321Z,8.50
2019-01-11T07:22:40.311Z,8.95
2019-01-11T07:25:11.120Z,8.40
2019-01-11T07:27:41.672Z,8.35
2019-01-11T07:30:13.743Z,9.95
2019-01-11T07:32:42.691Z,8.53
2019-01-11T07:35:11.727Z,8.78
2019-01-11T07:37:40.617Z,8.70
2019-01-11T07:40:12.792Z,9.20
2019-01-11T07:42:41.684Z,8.98
2019-01-11T07:45:14.967Z,9.35
2019-01-11T07:47:43.544Z,8.95
2019-01-11T07:50:12.434Z,8.80
2019-01-11T07:52:41.022Z,7.87
2019-01-11T07:55:10.178Z,7.67
2019-01-11T07:57:38.974Z,8.10
2019-01-11T08:00:12.905Z,7.40
2019-01-11T08:02:41.724Z,7.50
2019-01-11T08:05:10.557Z,7.47
2019-01-11T08:07:39.029Z,7.35
2019-01-11T08:10:10.240Z,7.42
2019-01-11T08:12:38.994Z,7.87
2019-01-11T08:15:16.380Z,6.85
2019-01-11T08:17:45.068Z,6.65
2019-01-11T08:20:13.771Z,7.10
2019-01-11T08:22:45.378Z,6.62
2019-01-11T08:25:15.135Z,6.95
2019-01-11T08:27:44.730Z,6.95
2019-01-11T08:30:16.697Z,7.37
2019-01-11T08:32:45.801Z,6.80
2019-01-11T08:35:15.204Z,6.90
2019-01-11T08:37:43.984Z,6.72
2019-01-11T08:40:13.104Z,7.05
2019-01-11T08:42:41.877Z,6.83
2019-01-11T08:45:15.023Z,6.90
2019-01-11T08:47:43.956Z,5.30
2019-01-11T08:50:18.477Z,6.33
2019-01-11T08:52:46.956Z,5.80
2019-01-11T08:55:15.635Z,6.50
2019-01-11T08:57:44.103Z,5.58
2019-01-11T09:00:14.709Z,5.25
2019-01-11T09:02:43.646Z,6.00
2019-01-11T09:05:12.326Z,6.03
2019-01-11T09:07:41.010Z,5.50
2019-01-11T09:10:22.756Z,4.95
2019-01-11T09:12:48.321Z,5.87
2019-01-11T09:15:16.998Z,6.03
2019-01-11T09:17:47.421Z,5.75
2019-01-11T09:20:16.125Z,6.10
2019-01-11T09:22:44.933Z,4.80
2019-01-11T09:25:13.959Z,6.05
2019-01-11T09:27:42.713Z,5.05
2019-01-11T09:30:11.685Z,5.23
2019-01-11T09:32:40.660Z,4.47
2019-01-11T09:35:09.395Z,4.30
2019-01-11T09:37:38.167Z,4.83
2019-01-11T09:40:08.690Z,5.03
2019-01-11T09:42:37.565Z,5.42
2019-01-11T09:45:07.494Z,5.08
2019-01-11T09:47:36.314Z,4.47
2019-01-11T09:50:07.977Z,5.70
2019-01-11T09:52:36.564Z,4.80
2019-01-11T09:55:07.000Z,4.90
2019-01-11T09:57:36.224Z,4.87
2019-01-11T10:00:14.026Z,4.60
2019-01-11T10:02:43.186Z,4.90
2019-01-11T10:05:12.022Z,5.25
2019-01-11T10:07:41.035Z,5.05
2019-01-11T10:10:11.707Z,4.78
2019-01-11T10:12:41.066Z,5.47
2019-01-11T10:15:11.666Z,5.15
2019-01-11T10:17:40.658Z,4.77
2019-01-11T10:20:11.719Z,5.00
2019-01-11T10:22:41.057Z,4.45
2019-01-11T10:25:10.799Z,5.35
2019-01-11T10:27:39.825Z,4.80
2019-01-11T10:30:14.741Z,4.10
2019-01-11T10:32:43.545Z,4.70
2019-01-11T10:35:12.180Z,4.30
2019-01-11T10:37:41.314Z,4.20
2019-01-11T10:40:12.730Z,3.98
2019-01-11T10:42:41.665Z,3.92
2019-01-11T10:45:13.512Z,3.50
2019-01-11T10:47:42.206Z,3.55
2019-01-11T10:51:28.241Z,3.87
2019-01-11T10:53:56.284Z,3.80
2019-01-11T10:56:24.965Z,3.12
2019-01-11T10:58:53.834Z,3.40
2019-01-11T11:01:22.440Z,3.50
2019-01-11T11:03:51.105Z,3.15
2019-01-11T11:06:19.927Z,2.95
2019-01-11T11:08:48.485Z,2.90
2019-01-11T11:11:17.389Z,2.77
2019-01-11T11:13:46.485Z,2.85
2019-01-11T11:16:15.385Z,3.15
2019-01-11T11:18:45.606Z,2.70
2019-01-11T11:21:14.685Z,2.92
2019-01-11T11:23:43.463Z,2.50
2019-01-11T11:26:11.937Z,2.75
2019-01-11T11:28:40.654Z,2.30
2019-01-11T11:31:09.545Z,2.90
2019-01-11T11:33:38.516Z,2.70
2019-01-11T11:36:07.100Z,2.80
2019-01-11T11:38:35.905Z,2.58
2019-01-11T11:41:04.586Z,2.73
2019-01-11T11:43:33.571Z,2.65
2019-01-11T11:46:02.465Z,2.35
2019-01-11T11:48:31.172Z,2.25
2019-01-11T11:51:00.045Z,2.50
2019-01-11T11:53:28.828Z,2.27
2019-01-11T11:55:57.393Z,2.35
2019-01-11T11:58:27.425Z,2.27
2019-01-11T12:00:56.142Z,2.30
2019-01-11T12:03:24.997Z,2.50
2019-01-11T12:05:53.907Z,2.10
2019-01-11T12:08:22.464Z,2.07
2019-01-11T12:10:51.286Z,2.12
2019-01-11T12:13:20.042Z,1.80
2019-01-11T12:15:48.973Z,2.00
2019-01-11T12:18:18.636Z,2.22
2019-01-11T12:20:47.516Z,1.70
2019-01-11T12:23:16.353Z,1.80
2019-01-11T12:25:45.133Z,2.00
2019-01-11T12:28:14.102Z,1.90
2019-01-11T12:30:42.905Z,1.65
2019-01-11T12:33:11.508Z,1.37
2019-01-11T12:35:40.585Z,1.37
2019-01-11T12:38:13.672Z,1.60
2019-01-11T12:40:39.687Z,1.30
2019-01-11T12:43:08.794Z,1.40
2019-01-11T12:45:37.685Z,1.95
2019-01-11T12:48:06.479Z,2.12
2019-01-11T12:50:35.365Z,1.70
2019-01-11T12:53:04.174Z,2.12
2019-01-11T12:55:32.945Z,1.90
2019-01-11T12:58:02.026Z,1.70
2019-01-11T13:00:30.803Z,1.67
2019-01-11T13:02:59.484Z,1.90
2019-01-11T13:05:28.605Z,1.98
2019-01-11T13:07:57.387Z,2.00
2019-01-11T13:10:26.145Z,1.82
2019-01-11T13:12:55.271Z,1.80
2019-01-11T13:15:24.274Z,1.90
2019-01-11T13:17:53.165Z,1.97
2019-01-11T13:20:22.162Z,1.70
2019-01-11T13:22:50.998Z,1.60
2019-01-11T13:25:19.926Z,2.10
2019-01-11T13:27:48.812Z,2.10
2019-01-11T13:30:18.358Z,2.02
2019-01-11T13:32:47.225Z,1.85
2019-01-11T13:35:15.988Z,1.87
2019-01-11T13:37:45.105Z,1.52
2019-01-11T13:40:19.525Z,2.05
2019-01-11T13:42:48.628Z,1.92
2019-01-11T13:45:18.227Z,1.75
2019-01-11T13:47:47.007Z,1.90
2019-01-11T13:50:34.228Z,2.25
2019-01-11T13:53:03.228Z,2.05
2019-01-11T13:55:31.905Z,1.85
2019-01-11T13:58:01.015Z,1.90
2019-01-11T14:00:29.565Z,2.40
2019-01-11T14:02:58.485Z,1.90
2019-01-11T14:05:27.466Z,1.50
2019-01-11T14:07:56.274Z,2.15
2019-01-11T14:10:25.145Z,1.80
2019-01-11T14:12:53.825Z,1.20
2019-01-11T14:15:22.599Z,1.60
2019-01-11T14:17:51.526Z,1.40
2019-01-11T14:20:20.625Z,1.57
2019-01-11T14:22:49.786Z,2.00
2019-01-11T14:25:18.327Z,1.87
2019-01-11T14:27:48.351Z,1.50
2019-01-11T14:30:19.669Z,1.90
2019-01-11T14:32:48.647Z,1.70
2019-01-11T14:35:17.545Z,1.42
2019-01-11T14:37:46.171Z,1.47
2019-01-11T14:40:16.560Z,1.50
2019-01-11T14:42:45.539Z,2.10
2019-01-11T14:45:16.111Z,1.25
2019-01-11T14:47:45.066Z,1.70
2019-01-11T14:50:15.852Z,1.27
2019-01-11T14:52:45.077Z,2.25
2019-01-11T14:55:13.885Z,1.47
2019-01-11T14:57:42.753Z,1.87
2019-01-11T15:00:17.056Z,1.67
2019-01-11T15:02:45.764Z,2.00
2019-01-11T15:05:15.579Z,2.08
2019-01-11T15:07:44.156Z,1.92
2019-01-11T15:10:14.234Z,1.80
2019-01-11T15:12:43.368Z,1.50
2019-01-11T15:15:12.598Z,1.60
2019-01-11T15:17:41.601Z,1.60
2019-01-11T15:20:15.456Z,1.50
2019-01-11T15:22:44.293Z,2.50
2019-01-11T15:25:13.165Z,2.15
2019-01-11T15:27:42.029Z,1.70
2019-01-11T15:30:16.658Z,1.70
2019-01-11T15:32:45.758Z,1.90
2019-01-11T15:35:14.367Z,2.20
2019-01-11T15:37:42.918Z,2.10
2019-01-11T15:40:20.553Z,2.00
2019-01-11T15:42:49.315Z,1.72
2019-01-11T15:45:18.121Z,2.10
2019-01-11T15:47:47.252Z,2.83
2019-01-11T15:50:19.265Z,2.40
2019-01-11T15:52:48.173Z,2.20
2019-01-11T15:55:17.062Z,2.20
2019-01-11T15:57:45.947Z,2.00
2019-01-11T16:00:17.624Z,2.02
2019-01-11T16:02:46.585Z,2.50
2019-01-11T16:05:15.285Z,2.05
2019-01-11T16:07:44.057Z,2.27
2019-01-11T16:10:18.365Z,2.10
2019-01-11T16:12:47.485Z,2.45
2019-01-11T16:15:34.385Z,2.37
2019-01-11T16:18:06.365Z,2.87
2019-01-11T16:20:35.262Z,2.50
2019-01-11T16:23:04.058Z,2.40
2019-01-11T16:25:33.017Z,2.40
2019-01-11T16:28:01.911Z,2.50
2019-01-11T16:30:30.597Z,2.40
2019-01-11T16:32:59.505Z,1.77
2019-01-11T16:35:28.477Z,2.60
2019-01-11T16:37:57.385Z,2.63
2019-01-11T16:40:26.277Z,2.00
2019-01-11T16:42:55.065Z,2.15
2019-01-11T16:45:24.045Z,2.52
2019-01-11T16:47:53.052Z,2.20
2019-01-11T16:50:21.925Z,2.10
2019-01-11T16:52:50.825Z,2.50
2019-01-11T16:55:19.705Z,2.00
2019-01-11T16:57:48.605Z,2.00
2019-01-11T17:00:19.657Z,2.33
2019-01-11T17:02:48.488Z,2.62
2019-01-11T17:05:17.325Z,2.50
2019-01-11T17:07:46.305Z,2.12
2019-01-11T17:10:15.008Z,2.33
2019-01-11T17:12:43.885Z,2.42
2019-01-11T17:15:15.528Z,2.67
2019-01-11T17:17:44.425Z,2.52
2019-01-11T17:20:15.386Z,2.80
2019-01-11T17:22:44.470Z,2.45
2019-01-11T17:25:14.270Z,2.10
2019-01-11T17:27:43.073Z,2.27
2019-01-11T17:30:14.888Z,2.47
2019-01-11T17:32:43.799Z,2.35
2019-01-11T17:35:12.825Z,2.52
2019-01-11T17:37:41.668Z,2.50
2019-01-11T17:40:11.793Z,2.30
2019-01-11T17:42:40.726Z,2.20
2019-01-11T17:45:11.551Z,2.27
2019-01-11T17:47:40.321Z,2.45
2019-01-11T17:50:12.134Z,1.95
2019-01-11T17:52:42.603Z,2.30
2019-01-11T17:55:11.297Z,2.08
2019-01-11T17:57:40.111Z,2.22
2019-01-11T18:00:11.943Z,2.52
2019-01-11T18:02:40.745Z,2.40
2019-01-11T18:05:10.971Z,2.70
2019-01-11T18:07:40.101Z,2.70
2019-01-11T18:10:10.329Z,2.83
2019-01-11T18:12:39.265Z,2.40
2019-01-11T18:15:11.345Z,3.10
2019-01-11T18:17:39.886Z,3.30
2019-01-11T18:20:14.861Z,2.47
2019-01-11T18:22:43.746Z,2.62
2019-01-11T18:25:13.619Z,2.95
2019-01-11T18:27:42.346Z,2.75
2019-01-11T18:30:13.829Z,2.80
2019-01-11T18:32:42.822Z,2.45
2019-01-11T18:35:11.703Z,2.37
2019-01-11T18:37:40.743Z,2.58
2019-01-11T18:40:26.458Z,2.40
2019-01-11T18:42:55.329Z,2.47
2019-01-11T18:45:28.564Z,2.70
2019-01-11T18:47:54.665Z,2.45
2019-01-11T18:50:24.269Z,2.42
2019-01-11T18:52:52.996Z,2.50
2019-01-11T18:55:22.653Z,2.97
2019-01-11T18:57:51.566Z,2.60
2019-01-11T19:00:22.513Z,2.50
2019-01-11T19:02:51.177Z,2.27
2019-01-11T19:05:22.124Z,2.20
2019-01-11T19:07:50.959Z,2.85
2019-01-11T19:10:21.246Z,2.80
2019-01-11T19:12:50.005Z,2.42
2019-01-11T19:15:21.274Z,2.20
2019-01-11T19:17:49.835Z,2.30
2019-01-11T19:20:20.585Z,2.17
2019-01-11T19:22:49.128Z,2.87
2019-01-11T19:25:17.841Z,2.00
2019-01-11T19:27:46.730Z,2.12
2019-01-11T19:30:20.245Z,2.30
2019-01-11T19:32:49.054Z,2.57
2019-01-11T19:35:17.891Z,2.27
2019-01-11T19:37:46.594Z,2.40
2019-01-11T19:40:16.352Z,2.70
2019-01-11T19:42:45.402Z,2.80
2019-01-11T19:45:15.425Z,1.80
2019-01-11T19:47:44.936Z,2.15
2019-01-11T19:50:18.284Z,2.20
2019-01-11T19:52:47.009Z,2.40
2019-01-11T19:55:15.784Z,2.47
2019-01-11T19:57:44.541Z,2.70
2019-01-11T20:00:22.183Z,2.33
2019-01-11T20:02:50.993Z,2.90
2019-01-11T20:05:19.881Z,2.60
2019-01-11T20:07:48.536Z,2.80
2019-01-11T20:10:23.280Z,2.20
2019-01-11T20:12:52.087Z,2.80
2019-01-11T20:15:20.896Z,2.62
2019-01-11T20:17:49.964Z,2.53
2019-01-11T20:20:18.938Z,2.20
2019-01-11T20:22:47.616Z,2.80
2019-01-11T20:25:23.682Z,3.20
2019-01-11T20:27:52.462Z,2.40
2019-01-11T20:30:23.404Z,3.22
2019-01-11T20:32:52.090Z,2.52
2019-01-11T20:35:20.772Z,2.75
2019-01-11T20:37:49.678Z,1.98
2019-01-11T20:40:18.875Z,2.35
2019-01-11T20:42:47.786Z,2.08
2019-01-11T20:45:18.229Z,1.67
2019-01-11T20:47:48.395Z,1.90
2019-01-11T20:50:20.006Z,2.00
2019-01-11T20:52:48.768Z,1.90
2019-01-11T20:55:17.875Z,1.60
2019-01-11T20:57:46.394Z,1.72
2019-01-11T21:00:24.758Z,2.10
2019-01-11T21:02:53.755Z,2.40
2019-01-11T21:05:22.722Z,2.65
2019-01-11T21:07:51.820Z,2.85
2019-01-11T21:10:20.731Z,2.58
2019-01-11T21:12:49.498Z,2.70
2019-01-11T21:15:20.277Z,3.30
2019-01-11T21:17:49.138Z,2.65
2019-01-11T21:20:19.446Z,3.00
2019-01-11T21:22:48.446Z,3.17
2019-01-11T21:25:18.778Z,3.17
2019-01-11T21:27:47.615Z,3.15
2019-01-11T21:30:27.595Z,3.30
2019-01-11T21:32:56.300Z,3.70
2019-01-11T21:35:25.507Z,3.40
2019-01-11T21:37:54.471Z,3.70
2019-01-11T21:40:23.147Z,3.67
2019-01-11T21:42:51.944Z,3.83
2019-01-11T21:45:20.830Z,3.95
2019-01-11T21:47:49.738Z,3.90
2019-01-11T21:50:23.458Z,3.67
2019-01-11T21:52:52.538Z,3.45
2019-01-11T21:55:21.071Z,3.35
2019-01-11T21:57:49.909Z,3.50
2019-01-11T22:00:25.043Z,3.47
2019-01-11T22:02:53.718Z,3.15
2019-01-11T22:05:22.393Z,3.90
2019-01-11T22:07:51.429Z,3.27
2019-01-11T22:10:20.185Z,3.40
2019-01-11T22:12:48.842Z,3.27
2019-01-11T22:15:18.995Z,2.80
2019-01-11T22:17:47.788Z,3.08
2019-01-11T22:20:18.614Z,2.90
2019-01-11T22:22:47.417Z,2.62
2019-01-11T22:25:16.883Z,2.10
2019-01-11T22:27:45.608Z,2.02
2019-01-11T22:30:19.418Z,1.80
2019-01-11T22:32:48.297Z,1.75
2019-01-11T22:35:18.413Z,1.90
2019-01-11T22:37:47.617Z,1.92
2019-01-11T22:40:18.237Z,2.25
2019-01-11T22:42:47.685Z,1.50
2019-01-11T22:45:16.528Z,1.80
2019-01-11T22:47:45.218Z,2.17
2019-01-11T22:50:15.596Z,2.05
2019-01-11T22:52:44.543Z,2.50
2019-01-11T22:55:15.101Z,2.37
2019-01-11T22:57:43.750Z,2.50
2019-01-11T23:00:38.353Z,2.30
2019-01-11T23:03:10.618Z,1.90
2019-01-11T23:05:39.769Z,2.50
2019-01-11T23:08:10.159Z,2.07
2019-01-11T23:10:51.273Z,2.10
2019-01-11T23:13:20.413Z,1.92
2019-01-11T23:15:49.385Z,1.95
2019-01-11T23:18:18.308Z,2.00
2019-01-11T23:20:47.192Z,2.30
2019-01-11T23:23:15.987Z,2.10
2019-01-11T23:25:44.779Z,1.90
2019-01-11T23:28:13.558Z,1.82
2019-01-11T23:30:42.237Z,1.70
2019-01-11T23:33:11.833Z,1.72
2019-01-11T23:35:40.515Z,1.57
2019-01-11T23:38:10.224Z,1.65
2019-01-11T23:40:39.027Z,1.85
2019-01-11T23:43:08.019Z,1.70
2019-01-11T23:45:36.587Z,1.82
2019-01-11T23:48:05.370Z,1.67
2019-01-11T23:50:34.337Z,1.60
2019-01-11T23:53:03.081Z,1.50
2019-01-11T23:55:31.963Z,1.45
2019-01-11T23:58:00.964Z,1.75
